Aérodrome :
LOGIN :

S'inscrire | Disclaimer

   EN    FR    IT 

 










Légende :    VFR   VFR Marginal   IFR   IFR Intensif   IFR Très Intensif
Visi : 
Plafond : 
>= 8 km
>= 3000ft
5 à 8 km
1000 à 3000 ft
1500m à 5 km
500 à 1000 ft
800 à 1500m
200 à 500 ft
< 800m
< 200 ft
Symboles :   Orages  Brouillard  Fortes neiges  Fortes précipitations  Vent > 20 kt
SIGMETs :   Divers  Orages  Givrage  Turbulence  Onde Orograph.  Cendres Volcan.







- Altitude de l'aérodrome : 935 ft


EBFS - Florennes

DERNIER METAR :
  • 192025Z AUTO VRB01KT 9999 NCD 19/07 Q1025 BLU

METARs EXPIRÉS :
  • 191955Z AUTO VRB02KT 9999 NCD 20/07 Q1025 BLU
  • 191925Z AUTO 22003KT 9999 NCD 21/07 Q1025 BLU
  • 191855Z AUTO 22005KT 9999 NCD 22/06 Q1025 BLU
  • 191825Z AUTO 23005KT 9999 NCD 23/06 Q1025 BLU
  • 191755Z AUTO 23006KT 9999 NCD 25/05 Q1025 BLU

TAF TAF EBFS
Valide du 19 à 19h jusqu'au 20 à 07h UTC


191541Z 1919/2007 19005KT 9999 NSW SCT350
BECMG 2000/2002 25005KT
Pas de NOTAMs connus pour ce terrain.



MET'MAP, la Météo Aéronautique d'un coup d'oeil ! - Copyright ORBIFLY Décembre 2007 - Disclaimer

ORBIFLY MET'MAP TEAM :

Programmation & Développement : Alexandra Zaïnal
Conception & Développement : Baudouin d'Aumeries
Co-Programmation & Développement : Marc-Olivier Méhu
Soutien technique & logistique : Manuel Goepfert

Contact : metmap@orbifly.com




SOURCES & CREDITS :

   NOAA